createdAt,value
2018-11-13T00:01:10.783Z,99.81
2018-11-13T00:03:39.285Z,100.00
2018-11-13T00:06:07.840Z,99.98
2018-11-13T00:08:36.423Z,99.89
2018-11-13T00:11:05.102Z,99.89
2018-11-13T00:13:33.628Z,99.88
2018-11-13T00:16:02.240Z,99.57
2018-11-13T00:18:30.764Z,99.53
2018-11-13T00:20:59.310Z,99.39
2018-11-13T00:23:27.899Z,99.53
2018-11-13T00:25:56.510Z,99.87
2018-11-13T00:28:25.229Z,99.75
2018-11-13T00:30:53.802Z,99.93
2018-11-13T00:33:22.389Z,99.81
2018-11-13T00:35:51.047Z,99.81
2018-11-13T00:38:19.576Z,99.91
2018-11-13T00:40:48.098Z,99.79
2018-11-13T00:43:16.691Z,99.41
2018-11-13T00:45:45.441Z,99.32
2018-11-13T00:48:13.793Z,99.57
2018-11-13T00:50:43.121Z,99.53
2018-11-13T00:53:11.570Z,99.64
2018-11-13T00:55:40.153Z,99.72
2018-11-13T00:58:08.733Z,99.49
2018-11-13T01:00:38.139Z,99.93
2018-11-13T01:03:06.865Z,99.79
2018-11-13T01:05:35.432Z,99.62
2018-11-13T01:08:03.977Z,99.60
2018-11-13T01:10:32.538Z,99.46
2018-11-13T01:13:01.702Z,99.39
2018-11-13T01:15:30.450Z,99.31
2018-11-13T01:17:59.690Z,99.10
2018-11-13T01:20:28.214Z,98.89
2018-11-13T01:22:57.541Z,98.99
2018-11-13T01:25:26.114Z,98.93
2018-11-13T01:27:54.642Z,99.45
2018-11-13T01:30:26.078Z,99.04
2018-11-13T01:32:54.577Z,99.33
2018-11-13T01:35:23.119Z,99.16
2018-11-13T01:37:51.665Z,99.00
2018-11-13T01:40:21.317Z,99.03
2018-11-13T01:42:50.526Z,98.84
2018-11-13T01:45:19.889Z,98.73
2018-11-13T01:47:48.491Z,98.55
2018-11-13T01:50:18.717Z,98.34
2018-11-13T01:52:47.330Z,98.46
2018-11-13T01:55:16.466Z,98.35
2018-11-13T01:57:45.161Z,98.07
2018-11-13T02:00:20.045Z,98.16
2018-11-13T02:02:49.836Z,98.26
2018-11-13T02:05:19.860Z,98.27
2018-11-13T02:07:48.677Z,98.39
2018-11-13T02:10:18.298Z,98.66
2018-11-13T02:12:47.341Z,98.55
2018-11-13T02:15:16.117Z,98.44
2018-11-13T02:17:44.825Z,98.54
2018-11-13T02:20:16.094Z,98.60
2018-11-13T02:22:44.759Z,98.36
2018-11-13T02:25:15.816Z,98.20
2018-11-13T02:27:44.951Z,98.76
2018-11-13T02:30:16.435Z,98.57
2018-11-13T02:32:45.421Z,98.60
2018-11-13T02:35:15.337Z,98.25
2018-11-13T02:37:44.370Z,98.43
2018-11-13T02:40:13.267Z,98.43
2018-11-13T02:42:42.744Z,98.28
2018-11-13T02:45:14.666Z,97.74
2018-11-13T02:47:43.362Z,97.89
2018-11-13T02:50:18.442Z,98.22
2018-11-13T02:52:46.966Z,98.19
2018-11-13T02:55:15.692Z,98.40
2018-11-13T02:57:45.624Z,98.46
2018-11-13T03:00:16.046Z,98.63
2018-11-13T03:02:44.724Z,98.57
2018-11-13T03:05:14.530Z,98.78
2018-11-13T03:07:43.367Z,98.53
2018-11-13T03:10:13.714Z,99.27
2018-11-13T03:12:42.379Z,99.03
2018-11-13T03:15:12.649Z,98.73
2018-11-13T03:17:41.258Z,98.72
2018-11-13T03:20:11.979Z,98.94
2018-11-13T03:22:41.102Z,98.90
2018-11-13T03:25:12.110Z,99.21
2018-11-13T03:27:40.637Z,99.08
2018-11-13T03:30:18.144Z,98.94
2018-11-13T03:32:46.815Z,98.67
2018-11-13T03:35:15.357Z,98.07
2018-11-13T03:37:44.268Z,98.58
2018-11-13T03:40:13.487Z,98.28
2018-11-13T03:42:42.610Z,98.34
2018-11-13T03:45:12.131Z,98.50
2018-11-13T03:47:40.659Z,98.59
2018-11-13T03:50:11.778Z,98.56
2018-11-13T03:52:40.362Z,99.27
2018-11-13T03:55:09.772Z,98.84
2018-11-13T03:57:39.361Z,98.89
2018-11-13T04:00:11.042Z,98.77
2018-11-13T04:02:40.141Z,98.77
2018-11-13T04:05:10.208Z,98.78
2018-11-13T04:07:42.139Z,98.38
2018-11-13T04:10:12.247Z,98.33
2018-11-13T04:12:41.227Z,98.61
2018-11-13T04:15:11.662Z,98.46
2018-11-13T04:17:40.330Z,98.17
2018-11-13T04:20:10.581Z,98.35
2018-11-13T04:22:39.358Z,98.16
2018-11-13T04:25:08.430Z,97.67
2018-11-13T04:27:37.009Z,98.32
2018-11-13T04:30:06.226Z,98.38
2018-11-13T04:32:34.800Z,98.26
2018-11-13T04:35:03.387Z,97.91
2018-11-13T04:37:32.084Z,98.04
2018-11-13T04:40:00.636Z,97.52
2018-11-13T04:42:29.267Z,97.90
2018-11-13T04:44:57.898Z,97.71
2018-11-13T04:47:26.466Z,97.60
2018-11-13T04:49:55.005Z,97.92
2018-11-13T04:52:23.545Z,97.79
2018-11-13T04:54:52.152Z,98.33
2018-11-13T04:57:20.794Z,97.66
2018-11-13T04:59:49.310Z,97.99
2018-11-13T05:02:17.880Z,98.44
2018-11-13T05:04:46.450Z,98.18
2018-11-13T05:07:14.989Z,98.08
2018-11-13T05:09:44.283Z,98.14
2018-11-13T05:12:12.858Z,98.01
2018-11-13T05:14:41.514Z,97.76
2018-11-13T05:17:10.091Z,98.17
2018-11-13T05:19:38.677Z,98.52
2018-11-13T05:22:07.466Z,98.48
2018-11-13T05:24:36.096Z,98.40
2018-11-13T05:27:04.869Z,98.71
2018-11-13T05:29:33.447Z,98.64
2018-11-13T05:32:01.934Z,98.85
2018-11-13T05:34:30.478Z,98.47
2018-11-13T05:36:59.026Z,98.75
2018-11-13T05:39:27.565Z,98.70
2018-11-13T05:41:56.104Z,98.63
2018-11-13T05:44:24.692Z,98.45
2018-11-13T05:46:53.799Z,98.85
2018-11-13T05:49:22.350Z,98.52
2018-11-13T05:51:51.500Z,98.23
2018-11-13T05:54:20.208Z,98.27
2018-11-13T05:56:48.718Z,98.66
2018-11-13T05:59:17.262Z,98.49
2018-11-13T06:01:46.564Z,98.56
2018-11-13T06:04:15.073Z,98.24
2018-11-13T06:06:43.655Z,98.15
2018-11-13T06:09:12.679Z,98.04
2018-11-13T06:11:41.307Z,97.79
2018-11-13T06:14:09.893Z,97.99
2018-11-13T06:16:38.410Z,98.49
2018-11-13T06:19:07.206Z,98.63
2018-11-13T06:21:36.568Z,98.40
2018-11-13T06:24:05.629Z,99.01
2018-11-13T06:26:35.437Z,98.26
2018-11-13T06:29:03.979Z,98.16
2018-11-13T06:31:32.654Z,98.00
2018-11-13T06:34:01.234Z,97.85
2018-11-13T06:36:29.782Z,98.17
2018-11-13T06:38:58.455Z,98.49
2018-11-13T06:41:27.064Z,99.04
2018-11-13T06:43:55.885Z,99.04
2018-11-13T06:46:24.461Z,99.26
2018-11-13T06:48:53.104Z,99.07
2018-11-13T06:51:22.210Z,98.62
2018-11-13T06:54:02.218Z,98.89
2018-11-13T06:56:30.807Z,99.21
2018-11-13T06:58:59.323Z,99.15
2018-11-13T07:01:27.854Z,99.23
2018-11-13T07:03:56.390Z,98.89
2018-11-13T07:06:24.914Z,98.71
2018-11-13T07:08:53.442Z,99.14
2018-11-13T07:11:22.978Z,98.30
2018-11-13T07:13:52.126Z,98.13
2018-11-13T07:16:20.635Z,98.46
2018-11-13T07:18:49.183Z,98.74
2018-11-13T07:21:18.135Z,98.82
2018-11-13T07:23:46.862Z,98.44
2018-11-13T07:26:15.363Z,98.14
2018-11-13T07:28:44.038Z,97.78
2018-11-13T07:31:13.304Z,98.33
2018-11-13T07:33:42.362Z,97.90
2018-11-13T07:36:11.015Z,97.71
2018-11-13T07:38:39.575Z,97.69
2018-11-13T07:41:08.208Z,97.70
2018-11-13T07:43:36.731Z,97.84
2018-11-13T07:46:05.594Z,97.58
2018-11-13T07:48:34.099Z,97.62
2018-11-13T07:51:02.630Z,97.31
2018-11-13T07:53:31.232Z,97.43
2018-11-13T07:55:59.827Z,97.40
2018-11-13T07:58:28.424Z,97.27
2018-11-13T08:00:57.125Z,97.07
2018-11-13T08:03:38.626Z,96.82
2018-11-13T08:06:07.551Z,96.85
2018-11-13T08:08:36.120Z,96.65
2018-11-13T08:11:05.636Z,96.47
2018-11-13T08:13:34.876Z,96.79
2018-11-13T08:16:03.363Z,96.26
2018-11-13T08:18:32.932Z,96.13
2018-11-13T08:21:01.666Z,95.16
2018-11-13T08:23:30.966Z,95.31
2018-11-13T08:26:00.112Z,95.96
2018-11-13T08:28:28.904Z,96.01
2018-11-13T08:30:57.420Z,95.68
2018-11-13T08:33:25.932Z,94.72
2018-11-13T08:35:54.506Z,94.08
2018-11-13T08:38:23.087Z,93.29
2018-11-13T08:40:51.682Z,93.75
2018-11-13T08:43:20.921Z,93.42
2018-11-13T08:45:49.500Z,93.72
2018-11-13T08:48:18.108Z,94.58
2018-11-13T08:50:46.768Z,94.27
2018-11-13T08:53:15.878Z,94.23
2018-11-13T08:55:44.417Z,94.24
2018-11-13T08:58:13.426Z,93.58
2018-11-13T09:00:41.996Z,93.44
2018-11-13T09:03:11.129Z,93.25
2018-11-13T09:05:39.658Z,92.49
2018-11-13T09:08:08.178Z,92.54
2018-11-13T09:10:38.616Z,92.97
2018-11-13T09:13:07.355Z,91.80
2018-11-13T09:15:35.894Z,91.73
2018-11-13T09:18:04.429Z,91.57
2018-11-13T09:20:33.040Z,91.23
2018-11-13T09:23:01.673Z,89.59
2018-11-13T09:25:30.199Z,88.33
2018-11-13T09:27:58.764Z,88.80
2018-11-13T09:30:27.463Z,88.49
2018-11-13T09:32:55.963Z,87.32
2018-11-13T09:35:24.570Z,87.94
2018-11-13T09:37:53.156Z,87.33
2018-11-13T09:40:21.976Z,85.99
2018-11-13T09:42:51.846Z,84.66
2018-11-13T09:45:20.525Z,84.34
2018-11-13T09:47:49.105Z,84.20
2018-11-13T09:50:19.044Z,83.58
2018-11-13T09:52:48.856Z,83.70
2018-11-13T09:55:18.588Z,82.96
2018-11-13T09:57:47.854Z,82.94
2018-11-13T10:00:20.747Z,83.42
2018-11-13T10:02:55.116Z,83.33
2018-11-13T10:05:23.492Z,84.71
2018-11-13T10:07:52.631Z,84.73
2018-11-13T10:10:21.185Z,84.45
2018-11-13T10:12:49.754Z,84.57
2018-11-13T10:15:20.150Z,84.66
2018-11-13T10:17:48.755Z,84.98
2018-11-13T10:20:17.880Z,85.54
2018-11-13T10:22:49.715Z,84.25
2018-11-13T10:25:19.006Z,83.09
2018-11-13T10:27:47.579Z,83.18
2018-11-13T10:30:17.855Z,83.39
2018-11-13T10:32:46.885Z,82.61
2018-11-13T10:35:17.637Z,82.58
2018-11-13T10:37:47.462Z,81.77
2018-11-13T10:40:17.875Z,81.96
2018-11-13T10:42:47.063Z,81.87
2018-11-13T10:45:17.198Z,81.64
2018-11-13T10:47:46.879Z,81.50
2018-11-13T10:50:17.238Z,81.77
2018-11-13T10:52:45.719Z,81.75
2018-11-13T10:55:14.395Z,81.37
2018-11-13T10:57:43.446Z,79.77
2018-11-13T11:00:19.336Z,79.15
2018-11-13T11:03:57.088Z,78.98
2018-11-13T11:06:25.681Z,79.47
2018-11-13T11:08:54.204Z,79.43
2018-11-13T11:11:22.822Z,80.41
2018-11-13T11:13:51.543Z,79.68
2018-11-13T11:16:20.791Z,78.57
2018-11-13T11:18:49.330Z,78.64
2018-11-13T11:21:18.055Z,78.84
2018-11-13T11:23:46.733Z,78.04
2018-11-13T11:26:15.962Z,77.40
2018-11-13T11:28:44.543Z,77.76
2018-11-13T11:31:13.128Z,77.59
2018-11-13T11:33:42.635Z,76.83
2018-11-13T11:36:11.213Z,76.49
2018-11-13T11:38:39.834Z,75.82
2018-11-13T11:41:08.342Z,76.21
2018-11-13T11:43:36.962Z,76.87
2018-11-13T11:46:05.898Z,76.49
2018-11-13T11:48:34.470Z,75.30
2018-11-13T11:51:02.986Z,74.97
2018-11-13T11:53:31.670Z,75.17
2018-11-13T11:56:01.254Z,74.81
2018-11-13T11:58:29.871Z,75.43
2018-11-13T12:00:58.468Z,74.49
2018-11-13T12:03:27.044Z,75.93
2018-11-13T12:05:55.611Z,75.71
2018-11-13T12:08:24.164Z,76.26
2018-11-13T12:10:52.762Z,75.93
2018-11-13T12:13:21.327Z,75.30
2018-11-13T12:15:50.522Z,75.10
2018-11-13T12:18:19.019Z,75.82
2018-11-13T12:20:47.630Z,75.89
2018-11-13T12:23:17.131Z,75.03
2018-11-13T12:25:45.713Z,75.34
2018-11-13T12:28:14.419Z,74.36
2018-11-13T12:30:42.942Z,75.41
2018-11-13T12:33:11.545Z,75.78
2018-11-13T12:35:40.064Z,74.83
2018-11-13T12:38:08.644Z,74.32
2018-11-13T12:40:37.203Z,75.26
2018-11-13T12:43:06.243Z,74.54
2018-11-13T12:45:35.008Z,73.91
2018-11-13T12:48:03.578Z,73.99
2018-11-13T12:50:37.432Z,74.52
2018-11-13T12:53:05.985Z,74.73
2018-11-13T12:55:35.119Z,75.25
2018-11-13T12:58:03.643Z,74.77
2018-11-13T13:00:32.204Z,75.07
2018-11-13T13:03:00.800Z,75.21
2018-11-13T13:05:29.428Z,75.30
2018-11-13T13:07:58.124Z,75.42
2018-11-13T13:10:26.690Z,74.88
2018-11-13T13:12:55.216Z,75.06
2018-11-13T13:15:23.766Z,75.62
2018-11-13T13:17:52.523Z,74.81
2018-11-13T13:20:22.663Z,73.95
2018-11-13T13:22:51.627Z,73.65
2018-11-13T13:25:21.383Z,74.41
2018-11-13T13:27:50.184Z,74.67
2018-11-13T13:30:21.191Z,75.47
2018-11-13T13:32:50.063Z,75.68
2018-11-13T13:35:56.070Z,74.50
2018-11-13T13:38:24.666Z,74.52
2018-11-13T13:40:54.611Z,75.03
2018-11-13T13:43:24.028Z,74.77
2018-11-13T13:45:52.668Z,73.94
2018-11-13T13:48:21.589Z,73.39
2018-11-13T13:50:50.306Z,74.06
2018-11-13T13:53:19.609Z,74.52
2018-11-13T13:55:48.666Z,76.01
2018-11-13T13:58:17.709Z,75.46
2018-11-13T14:00:46.405Z,75.41
2018-11-13T14:03:15.360Z,75.00
2018-11-13T14:05:44.640Z,75.61
2018-11-13T14:08:14.011Z,76.29
2018-11-13T14:10:42.816Z,77.50
2018-11-13T14:13:11.714Z,77.11
2018-11-13T14:15:40.665Z,77.14
2018-11-13T14:18:09.286Z,77.25
2018-11-13T14:20:37.915Z,77.27
2018-11-13T14:23:06.765Z,77.71
2018-11-13T14:25:35.355Z,77.29
2018-11-13T14:28:03.969Z,76.78
2018-11-13T14:30:34.906Z,76.31
2018-11-13T14:33:08.839Z,76.51
2018-11-13T14:35:37.440Z,75.57
2018-11-13T14:38:07.288Z,75.58
2018-11-13T14:40:37.355Z,75.52
2018-11-13T14:43:06.439Z,75.67
2018-11-13T14:45:35.087Z,75.42
2018-11-13T14:48:04.301Z,76.46
2018-11-13T14:50:34.211Z,76.02
2018-11-13T14:53:02.924Z,76.75
2018-11-13T14:55:33.769Z,77.16
2018-11-13T14:58:04.352Z,77.23
2018-11-13T15:00:34.135Z,77.33
2018-11-13T15:03:03.715Z,77.66
2018-11-13T15:05:33.188Z,77.80
2018-11-13T15:08:05.107Z,77.10
2018-11-13T15:10:41.479Z,77.27
2018-11-13T15:13:10.568Z,77.88
2018-11-13T15:15:39.161Z,78.51
2018-11-13T15:18:08.798Z,78.65
2018-11-13T15:20:37.738Z,78.58
2018-11-13T15:23:07.419Z,78.69
2018-11-13T15:25:35.994Z,78.70
2018-11-13T15:28:04.929Z,78.74
2018-11-13T15:30:34.624Z,79.16
2018-11-13T15:33:05.119Z,78.47
2018-11-13T15:35:40.314Z,79.10
2018-11-13T15:38:09.130Z,79.31
2018-11-13T15:40:37.692Z,79.06
2018-11-13T15:43:06.648Z,79.66
2018-11-13T15:45:35.298Z,80.50
2018-11-13T15:48:05.784Z,80.74
2018-11-13T15:50:35.220Z,80.52
2018-11-13T15:53:03.756Z,80.83
2018-11-13T15:55:32.345Z,80.69
2018-11-13T15:58:01.780Z,80.98
2018-11-13T16:00:31.939Z,80.58
2018-11-13T16:03:02.081Z,81.33
2018-11-13T16:05:35.103Z,81.64
2018-11-13T16:08:05.434Z,82.40
2018-11-13T16:10:33.987Z,82.33
2018-11-13T16:13:02.725Z,82.72
2018-11-13T16:15:32.057Z,83.27
2018-11-13T16:18:01.842Z,83.49
2018-11-13T16:20:30.391Z,83.02
2018-11-13T16:22:58.948Z,83.71
2018-11-13T16:25:28.077Z,83.58
2018-11-13T16:27:56.588Z,83.77
2018-11-13T16:30:26.567Z,83.92
2018-11-13T16:32:55.256Z,83.75
2018-11-13T16:35:25.530Z,82.95
2018-11-13T16:37:55.157Z,83.29
2018-11-13T16:40:26.408Z,83.33
2018-11-13T16:42:54.970Z,83.88
2018-11-13T16:45:24.962Z,82.84
2018-11-13T16:47:53.972Z,83.10
2018-11-13T16:50:25.543Z,83.58
2018-11-13T16:52:54.141Z,83.89
2018-11-13T16:55:28.836Z,84.22
2018-11-13T16:57:58.202Z,84.98
2018-11-13T17:00:26.856Z,85.33
2018-11-13T17:02:55.594Z,84.49
2018-11-13T17:05:25.765Z,84.55
2018-11-13T17:07:54.214Z,85.12
2018-11-13T17:10:24.345Z,84.88
2018-11-13T17:12:53.307Z,84.83
2018-11-13T17:15:22.978Z,85.34
2018-11-13T17:17:52.789Z,84.86
2018-11-13T17:20:22.062Z,84.03
2018-11-13T17:22:51.020Z,84.18
2018-11-13T17:25:20.974Z,84.59
2018-11-13T17:27:50.760Z,83.79
2018-11-13T17:30:22.971Z,84.47
2018-11-13T17:32:52.026Z,84.12
2018-11-13T17:35:23.136Z,84.68
2018-11-13T17:37:52.544Z,85.52
2018-11-13T17:40:26.427Z,85.51
2018-11-13T17:42:56.294Z,85.49
2018-11-13T17:45:26.395Z,86.09
2018-11-13T17:47:54.952Z,86.49
2018-11-13T17:50:26.129Z,86.49
2018-11-13T17:52:54.762Z,86.23
2018-11-13T17:55:23.860Z,86.71
2018-11-13T17:57:54.067Z,86.83
2018-11-13T18:00:30.141Z,86.45
2018-11-13T18:02:58.758Z,85.98
2018-11-13T18:05:27.815Z,85.82
2018-11-13T18:07:57.698Z,86.59
2018-11-13T18:10:26.895Z,86.87
2018-11-13T18:12:55.538Z,87.70
2018-11-13T18:15:25.296Z,87.11
2018-11-13T18:17:54.024Z,87.10
2018-11-13T18:20:24.082Z,87.33
2018-11-13T18:22:52.657Z,87.60
2018-11-13T18:25:21.472Z,88.24
2018-11-13T18:27:51.945Z,88.26
2018-11-13T18:30:25.919Z,88.82
2018-11-13T18:32:55.312Z,89.02
2018-11-13T18:35:25.242Z,89.10
2018-11-13T18:37:54.655Z,89.36
2018-11-13T18:40:23.810Z,89.98
2018-11-13T18:42:53.118Z,89.09
2018-11-13T18:45:24.282Z,88.84
2018-11-13T18:47:52.885Z,88.68
2018-11-13T18:50:27.746Z,89.62
2018-11-13T18:52:56.482Z,90.16
2018-11-13T18:55:25.283Z,90.44
2018-11-13T18:57:53.849Z,90.65
2018-11-13T19:00:25.327Z,89.55
2018-11-13T19:02:54.946Z,88.30
2018-11-13T19:05:25.151Z,89.52
2018-11-13T19:07:54.392Z,89.51
2018-11-13T19:10:29.741Z,89.59
2018-11-13T19:12:59.312Z,89.96
2018-11-13T19:15:29.426Z,89.60
2018-11-13T19:17:58.005Z,90.01
2018-11-13T19:20:27.212Z,91.02
2018-11-13T19:22:55.672Z,91.47
2018-11-13T19:25:25.702Z,90.72
2018-11-13T19:27:55.141Z,91.16
2018-11-13T19:30:23.941Z,91.10
2018-11-13T19:32:52.686Z,91.44
2018-11-13T19:35:21.820Z,91.73
2018-11-13T19:37:50.475Z,92.00
2018-11-13T19:40:20.538Z,92.27
2018-11-13T19:42:49.979Z,92.27
2018-11-13T19:45:19.787Z,92.36
2018-11-13T19:47:48.453Z,92.48
2018-11-13T19:50:18.959Z,92.33
2018-11-13T19:52:47.675Z,91.34
2018-11-13T19:55:17.018Z,90.70
2018-11-13T19:57:46.456Z,90.89
2018-11-13T20:00:23.502Z,90.41
2018-11-13T20:02:53.030Z,90.73
2018-11-13T20:05:21.871Z,90.76
2018-11-13T20:07:50.482Z,90.30
2018-11-13T20:10:20.967Z,90.01
2018-11-13T20:12:50.606Z,89.67
2018-11-13T20:15:19.819Z,89.35
2018-11-13T20:17:48.482Z,90.07
2018-11-13T20:20:19.177Z,90.84
2018-11-13T20:22:48.611Z,90.81
2018-11-13T20:25:18.782Z,90.74
2018-11-13T20:27:47.351Z,91.00
2018-11-13T20:30:21.020Z,91.15
2018-11-13T20:32:49.833Z,91.33
2018-11-13T20:35:18.635Z,92.26
2018-11-13T20:37:48.121Z,92.25
2018-11-13T20:40:18.133Z,92.06
2018-11-13T20:42:47.943Z,92.85
2018-11-13T20:45:16.516Z,93.06
2018-11-13T20:47:45.204Z,92.72
2018-11-13T20:50:22.898Z,93.41
2018-11-13T20:52:51.531Z,92.97
2018-11-13T20:55:20.167Z,93.06
2018-11-13T20:57:48.670Z,93.73
2018-11-13T21:00:19.945Z,93.14
2018-11-13T21:02:48.766Z,93.63
2018-11-13T21:05:18.267Z,93.69
2018-11-13T21:07:46.885Z,93.83
2018-11-13T21:10:20.719Z,93.89
2018-11-13T21:12:49.822Z,94.34
2018-11-13T21:15:19.778Z,94.35
2018-11-13T21:17:48.539Z,94.09
2018-11-13T21:20:18.229Z,94.68
2018-11-13T21:22:47.062Z,94.40
2018-11-13T21:25:17.150Z,94.62
2018-11-13T21:27:45.770Z,94.98
2018-11-13T21:30:18.007Z,94.85
2018-11-13T21:32:47.202Z,95.00
2018-11-13T21:35:16.194Z,95.42
2018-11-13T21:37:46.154Z,95.61
2018-11-13T21:40:15.965Z,95.25
2018-11-13T21:42:45.734Z,95.43
2018-11-13T21:45:14.932Z,95.56
2018-11-13T21:47:44.518Z,95.66
2018-11-13T21:50:16.634Z,96.17
2018-11-13T21:52:45.271Z,96.39
2018-11-13T21:55:15.936Z,96.12
2018-11-13T21:57:45.226Z,96.37
2018-11-13T22:00:16.429Z,96.32
2018-11-13T22:02:46.678Z,96.29
2018-11-13T22:05:15.801Z,96.13
2018-11-13T22:07:44.838Z,96.22
2018-11-13T22:10:13.416Z,96.71
2018-11-13T22:12:42.759Z,96.17
2018-11-13T22:15:19.103Z,96.42
2018-11-13T22:17:47.731Z,96.23
2018-11-13T22:20:17.231Z,96.28
2018-11-13T22:22:46.217Z,96.12
2018-11-13T22:25:17.057Z,96.27
2018-11-13T22:27:46.886Z,96.30
2018-11-13T22:30:17.390Z,96.56
2018-11-13T22:32:46.472Z,96.54
2018-11-13T22:35:15.510Z,96.56
2018-11-13T22:37:44.172Z,96.53
2018-11-13T22:40:22.282Z,96.85
2018-11-13T22:42:51.073Z,96.87
2018-11-13T22:45:21.777Z,96.95
2018-11-13T22:47:50.682Z,96.97
2018-11-13T22:50:26.933Z,96.86
2018-11-13T22:52:55.845Z,97.01
2018-11-13T22:55:24.428Z,97.01
2018-11-13T22:57:54.632Z,96.94
2018-11-13T23:00:25.820Z,97.22
2018-11-13T23:02:55.508Z,96.85
2018-11-13T23:05:24.096Z,97.38
2018-11-13T23:07:52.634Z,97.08
2018-11-13T23:10:21.244Z,97.07
2018-11-13T23:12:49.803Z,97.55
2018-11-13T23:15:20.421Z,97.23
2018-11-13T23:17:48.962Z,96.97
2018-11-13T23:20:18.933Z,97.09
2018-11-13T23:22:48.066Z,97.34
2018-11-13T23:25:17.858Z,97.58
2018-11-13T23:27:47.432Z,97.65
2018-11-13T23:30:18.824Z,97.95
2018-11-13T23:32:47.480Z,98.14
2018-11-13T23:35:17.182Z,98.33
2018-11-13T23:37:46.995Z,98.18
2018-11-13T23:40:17.431Z,98.13
2018-11-13T23:42:46.543Z,98.00
2018-11-13T23:45:16.143Z,98.23
2018-11-13T23:47:45.225Z,98.11
2018-11-13T23:50:14.022Z,98.02
2018-11-13T23:52:43.261Z,98.13
2018-11-13T23:55:12.834Z,98.20
2018-11-13T23:57:42.155Z,98.17
